createdAt,value
2019-04-07T00:04:17.183Z,29.02
2019-04-07T00:10:01.854Z,22.22
2019-04-07T00:12:50.897Z,26.27
2019-04-07T00:15:39.934Z,29.05
2019-04-07T00:18:30.786Z,31.20
2019-04-07T00:21:20.860Z,26.80
2019-04-07T00:24:10.233Z,30.15
2019-04-07T00:27:00.262Z,28.38
2019-04-07T00:29:42.347Z,27.80
2019-04-07T00:32:31.156Z,36.25
2019-04-07T00:35:39.050Z,28.67
2019-04-07T00:41:35.635Z,28.75
2019-04-07T00:44:24.697Z,32.33
2019-04-07T00:47:15.294Z,32.25
2019-04-07T00:53:22.268Z,31.87
2019-04-07T00:56:11.626Z,33.25
2019-04-07T00:59:02.670Z,27.22
2019-04-07T01:01:52.615Z,35.15
2019-04-07T01:04:43.020Z,28.80
2019-04-07T01:10:39.620Z,34.38
2019-04-07T01:13:28.516Z,26.35
2019-04-07T01:16:17.394Z,30.80
2019-04-07T01:19:07.147Z,26.75
2019-04-07T01:21:56.896Z,26.42
2019-04-07T01:24:45.748Z,25.27
2019-04-07T01:27:27.205Z,27.73
2019-04-07T01:33:31.395Z,27.22
2019-04-07T01:36:21.688Z,30.88
2019-04-07T01:42:25.568Z,45.50
2019-04-07T01:45:33.450Z,43.85
2019-04-07T01:48:41.354Z,34.03
2019-04-07T01:51:49.664Z,36.60
2019-04-07T01:54:59.028Z,35.85
2019-04-07T01:58:07.328Z,35.38
2019-04-07T02:01:15.814Z,28.98
2019-04-07T02:07:39.118Z,34.58
2019-04-07T02:10:47.019Z,32.42
2019-04-07T02:16:51.188Z,28.92
2019-04-07T02:22:58.748Z,29.20
2019-04-07T02:26:07.035Z,29.82
2019-04-07T02:29:08.048Z,29.15
2019-04-07T02:32:15.955Z,36.38
2019-04-07T02:35:45.015Z,31.85
2019-04-07T02:38:53.706Z,26.35
2019-04-07T02:42:02.496Z,27.77
2019-04-07T02:45:10.988Z,32.70
2019-04-07T02:51:15.329Z,31.00
2019-04-07T02:57:24.206Z,28.52
2019-04-07T03:00:32.710Z,35.10
2019-04-07T03:03:40.759Z,32.38
2019-04-07T03:09:39.887Z,35.92
2019-04-07T03:12:48.691Z,34.65
2019-04-07T03:22:24.405Z,35.28
2019-04-07T03:25:32.529Z,32.95
2019-04-07T03:28:16.907Z,28.70
2019-04-07T03:31:24.836Z,33.90
2019-04-07T03:37:45.541Z,32.23
2019-04-07T03:40:51.802Z,30.30
2019-04-07T03:43:59.671Z,32.28
2019-04-07T03:47:07.598Z,34.65
2019-04-07T03:53:12.441Z,28.52
2019-04-07T03:56:21.878Z,31.27
2019-04-07T03:59:30.613Z,35.90
2019-04-07T04:02:39.090Z,33.75
2019-04-07T04:08:42.783Z,33.40
2019-04-07T04:11:51.555Z,24.87
2019-04-07T04:17:51.283Z,30.10
2019-04-07T04:20:41.290Z,30.75
2019-04-07T04:23:30.308Z,32.20
2019-04-07T04:26:19.195Z,23.83
2019-04-07T04:29:02.575Z,26.95
2019-04-07T04:31:52.599Z,31.48
2019-04-07T04:34:43.153Z,23.98
2019-04-07T04:37:40.225Z,31.02
2019-04-07T04:40:23.148Z,31.87
2019-04-07T04:43:12.104Z,24.02
2019-04-07T04:46:03.184Z,30.12
2019-04-07T04:48:53.230Z,27.45
2019-04-07T04:51:42.530Z,29.95
2019-04-07T04:54:33.405Z,27.58
2019-04-07T04:57:23.239Z,25.40
2019-04-07T05:03:27.309Z,26.73
2019-04-07T05:06:16.085Z,29.60
2019-04-07T05:09:39.556Z,23.92
2019-04-07T05:12:16.358Z,26.82
2019-04-07T05:15:26.091Z,24.92
2019-04-07T05:18:14.923Z,27.13
2019-04-07T05:21:04.275Z,24.02
2019-04-07T05:23:54.835Z,24.25
2019-04-07T05:26:45.549Z,21.20
2019-04-07T05:29:28.122Z,28.83
2019-04-07T05:32:17.285Z,29.48
2019-04-07T05:35:27.552Z,26.45
2019-04-07T05:38:17.632Z,32.67
2019-04-07T05:41:06.554Z,31.87
2019-04-07T05:43:55.767Z,22.73
2019-04-07T05:46:28.160Z,29.25
2019-04-07T05:49:18.567Z,25.52
2019-04-07T05:52:08.460Z,30.02
2019-04-07T05:54:58.781Z,25.55
2019-04-07T05:57:49.648Z,26.35
2019-04-07T06:03:38.030Z,27.90
2019-04-07T06:06:25.931Z,27.10
2019-04-07T06:09:17.730Z,24.67
2019-04-07T06:12:08.491Z,32.57
2019-04-07T06:18:04.077Z,31.63
2019-04-07T06:26:47.622Z,23.20
2019-04-07T06:29:27.969Z,22.10
2019-04-07T06:32:17.627Z,19.50
2019-04-07T06:35:08.499Z,16.50
2019-04-07T06:38:04.139Z,19.67
2019-04-07T06:40:50.817Z,19.93
2019-04-07T06:43:40.219Z,23.83
2019-04-07T06:49:49.312Z,19.63
2019-04-07T06:52:57.695Z,18.60
2019-04-07T06:56:05.997Z,21.27
2019-04-07T06:59:15.570Z,23.50
2019-04-07T07:02:23.986Z,26.03
2019-04-07T07:14:42.629Z,17.87
2019-04-07T07:17:27.949Z,19.60
2019-04-07T07:20:37.292Z,19.70
2019-04-07T07:26:36.569Z,16.83
2019-04-07T07:29:26.818Z,18.47
2019-04-07T07:32:10.026Z,17.50
2019-04-07T07:34:58.846Z,17.30
2019-04-07T07:37:48.347Z,19.00
2019-04-07T07:40:38.581Z,17.17
2019-04-07T07:43:29.553Z,17.13
2019-04-07T07:46:21.822Z,17.83
2019-04-07T07:49:10.372Z,19.20
2019-04-07T07:52:01.399Z,14.00
2019-04-07T07:54:51.870Z,18.77
2019-04-07T07:57:41.734Z,15.03
2019-04-07T08:00:30.950Z,17.03
2019-04-07T08:03:22.837Z,15.90
2019-04-07T08:06:11.849Z,13.03
2019-04-07T08:09:09.824Z,13.73
2019-04-07T08:11:52.639Z,14.70
2019-04-07T08:14:42.580Z,13.70
2019-04-07T08:17:33.902Z,16.20
2019-04-07T08:20:23.173Z,17.70
2019-04-07T08:23:31.156Z,15.87
2019-04-07T08:26:23.897Z,17.27
2019-04-07T08:28:51.395Z,17.87
2019-04-07T08:31:39.361Z,16.33
2019-04-07T08:34:30.524Z,16.53
2019-04-07T08:37:19.065Z,14.27
2019-04-07T08:40:09.688Z,13.10
2019-04-07T08:42:59.353Z,12.47
2019-04-07T08:45:49.065Z,13.30
2019-04-07T08:48:37.941Z,14.60
2019-04-07T08:51:27.437Z,12.23
2019-04-07T08:54:18.441Z,11.83
2019-04-07T08:57:08.325Z,13.93
2019-04-07T08:59:57.555Z,12.63
2019-04-07T09:03:00.190Z,12.47
2019-04-07T09:05:38.355Z,13.27
2019-04-07T09:08:27.196Z,13.40
2019-04-07T09:11:35.148Z,11.97
2019-04-07T09:14:06.444Z,13.80
2019-04-07T09:17:23.258Z,13.20
2019-04-07T09:19:46.926Z,13.50
2019-04-07T09:22:57.247Z,12.80
2019-04-07T09:26:10.103Z,12.40
2019-04-07T09:29:16.275Z,11.37
2019-04-07T09:32:02.210Z,11.47
2019-04-07T09:38:08.010Z,10.77
2019-04-07T09:41:17.228Z,11.50
2019-04-07T09:44:25.400Z,10.50
2019-04-07T09:47:33.336Z,9.10
2019-04-07T09:50:41.906Z,9.67
2019-04-07T09:53:50.708Z,8.43
2019-04-07T09:57:03.418Z,7.03
2019-04-07T10:00:09.694Z,7.47
2019-04-07T10:06:27.009Z,6.83
2019-04-07T10:09:35.680Z,6.77
2019-04-07T10:12:25.192Z,6.83
2019-04-07T10:15:34.006Z,6.97
2019-04-07T10:18:42.808Z,7.20
2019-04-07T10:21:51.473Z,7.50
2019-04-07T10:24:59.341Z,7.77
2019-04-07T10:28:10.567Z,6.90
2019-04-07T10:31:19.510Z,8.27
2019-04-07T10:34:27.376Z,11.77
2019-04-07T10:37:36.133Z,7.43
2019-04-07T10:40:44.074Z,7.70
2019-04-07T10:43:52.595Z,7.10
2019-04-07T10:47:00.497Z,8.40
2019-04-07T10:49:58.613Z,5.20
2019-04-07T10:52:58.729Z,5.17
2019-04-07T10:56:06.900Z,4.13
2019-04-07T10:59:14.814Z,4.70
2019-04-07T11:02:22.805Z,5.47
2019-04-07T11:08:26.555Z,4.47
2019-04-07T11:11:34.447Z,4.80
2019-04-07T11:14:43.005Z,4.80
2019-04-07T11:17:51.563Z,3.30
2019-04-07T11:21:20.335Z,4.20
2019-04-07T11:24:31.082Z,4.03
2019-04-07T11:27:37.950Z,3.30
2019-04-07T11:30:45.852Z,4.63
2019-04-07T11:33:47.036Z,3.40
2019-04-07T11:42:59.793Z,3.57
2019-04-07T11:46:07.761Z,5.63
2019-04-07T11:52:06.024Z,5.33
2019-04-07T11:55:16.182Z,4.40
2019-04-07T11:58:31.414Z,3.87
2019-04-07T12:01:33.912Z,3.70
2019-04-07T12:04:22.578Z,4.13
2019-04-07T12:07:30.512Z,3.73
2019-04-07T12:10:38.742Z,3.73
2019-04-07T12:13:46.787Z,4.00
2019-04-07T12:20:04.264Z,3.60
2019-04-07T12:26:08.630Z,6.10
2019-04-07T12:29:16.767Z,5.47
2019-04-07T12:32:24.950Z,4.20
2019-04-07T12:39:01.792Z,3.80
2019-04-07T12:42:09.680Z,4.13
2019-04-07T12:45:18.027Z,5.60
2019-04-07T12:48:28.961Z,4.20
2019-04-07T12:51:35.556Z,4.67
2019-04-07T12:54:43.728Z,4.90
2019-04-07T12:57:35.466Z,4.33
2019-04-07T13:00:54.397Z,5.80
2019-04-07T13:07:01.297Z,4.37
2019-04-07T13:16:05.546Z,3.83
2019-04-07T13:21:50.065Z,3.77
2019-04-07T13:27:54.207Z,4.23
2019-04-07T13:30:43.340Z,4.00
2019-04-07T13:33:29.122Z,3.10
2019-04-07T13:36:17.156Z,4.00
2019-04-07T13:39:47.196Z,3.40
2019-04-07T13:42:58.058Z,5.20
2019-04-07T13:52:30.036Z,27.63
2019-04-07T13:58:15.046Z,4.27
2019-04-07T14:01:21.071Z,3.80
2019-04-07T14:04:15.664Z,5.17
2019-04-07T14:10:20.231Z,3.50
2019-04-07T14:13:29.962Z,4.70
2019-04-07T14:19:47.642Z,3.70
2019-04-07T14:22:55.649Z,3.80
2019-04-07T14:26:03.622Z,4.20
2019-04-07T14:29:11.992Z,7.83
2019-04-07T14:32:19.905Z,3.53
2019-04-07T14:47:38.799Z,4.57
2019-04-07T14:50:47.342Z,4.30
2019-04-07T14:53:55.446Z,4.70
2019-04-07T14:56:44.037Z,4.33
2019-04-07T14:59:54.212Z,4.53
2019-04-07T15:02:23.269Z,4.40
2019-04-07T15:05:32.697Z,5.27
2019-04-07T15:08:40.952Z,4.27
2019-04-07T15:11:48.829Z,4.67
2019-04-07T15:14:37.665Z,4.27
2019-04-07T15:17:27.162Z,3.67
2019-04-07T15:20:17.541Z,4.50
2019-04-07T15:23:08.606Z,4.20
2019-04-07T15:25:59.036Z,4.27
2019-04-07T15:28:49.317Z,6.40
2019-04-07T15:31:38.603Z,5.13
2019-04-07T15:34:29.646Z,6.63
2019-04-07T15:37:22.615Z,5.00
2019-04-07T15:40:10.909Z,4.40
2019-04-07T15:43:04.307Z,4.73
2019-04-07T15:45:52.177Z,5.20
2019-04-07T15:48:41.997Z,6.00
2019-04-07T15:51:34.148Z,4.53
2019-04-07T15:54:23.968Z,5.47
2019-04-07T15:57:12.070Z,4.63
2019-04-07T16:00:03.695Z,5.47
2019-04-07T16:02:53.313Z,5.77
2019-04-07T16:05:44.586Z,5.47
2019-04-07T16:08:32.671Z,5.97
2019-04-07T16:11:24.428Z,7.23
2019-04-07T16:14:13.608Z,5.07
2019-04-07T16:17:05.405Z,5.50
2019-04-07T16:19:54.425Z,5.40
2019-04-07T16:22:47.043Z,5.37
2019-04-07T16:25:34.910Z,5.43
2019-04-07T16:28:23.763Z,5.20
2019-04-07T16:31:13.268Z,5.60
2019-04-07T16:33:56.169Z,6.07
2019-04-07T16:36:44.993Z,5.37
2019-04-07T16:39:34.948Z,5.27
2019-04-07T16:42:25.268Z,5.60
2019-04-07T16:45:17.783Z,7.30
2019-04-07T16:48:06.696Z,6.90
2019-04-07T16:50:57.278Z,5.33
2019-04-07T16:53:47.808Z,6.33
2019-04-07T16:56:58.352Z,6.67
2019-04-07T16:59:28.360Z,10.37
2019-04-07T17:02:18.262Z,6.10
2019-04-07T17:05:07.970Z,7.30
2019-04-07T17:07:57.290Z,6.40
2019-04-07T17:10:47.383Z,7.80
2019-04-07T17:13:41.212Z,6.20
2019-04-07T17:16:26.902Z,8.07
2019-04-07T17:19:16.281Z,5.97
2019-04-07T17:22:07.198Z,6.50
2019-04-07T17:25:00.341Z,10.47
2019-04-07T17:28:03.406Z,7.90
2019-04-07T17:30:49.639Z,8.83
2019-04-07T17:33:36.058Z,8.70
2019-04-07T17:36:24.005Z,10.87
2019-04-07T17:39:36.927Z,9.30
2019-04-07T17:42:26.236Z,10.00
2019-04-07T17:48:50.377Z,10.47
2019-04-07T17:51:36.339Z,12.00
2019-04-07T17:54:42.917Z,7.90
2019-04-07T17:57:50.766Z,7.67
2019-04-07T18:00:59.676Z,9.37
2019-04-07T18:04:09.320Z,7.23
2019-04-07T18:07:17.961Z,12.47
2019-04-07T18:10:26.709Z,7.60
2019-04-07T18:13:44.968Z,7.93
2019-04-07T18:19:41.201Z,7.83
2019-04-07T18:25:45.787Z,10.90
2019-04-07T18:28:30.517Z,9.87
2019-04-07T18:31:04.973Z,12.60
2019-04-07T18:33:50.753Z,11.27
2019-04-07T18:36:21.400Z,8.53
2019-04-07T18:38:51.536Z,10.90
2019-04-07T18:41:38.656Z,15.40
2019-04-07T18:44:28.344Z,14.60
2019-04-07T18:47:12.198Z,14.30
2019-04-07T18:50:03.661Z,13.10
2019-04-07T18:52:33.596Z,12.53
2019-04-07T18:55:09.878Z,19.53
2019-04-07T18:57:52.118Z,11.33
2019-04-07T19:00:23.323Z,13.43
2019-04-07T19:02:53.467Z,13.93
2019-04-07T19:05:33.400Z,10.00
2019-04-07T19:08:20.265Z,9.57
2019-04-07T19:11:06.943Z,12.33
2019-04-07T19:13:43.153Z,10.77
2019-04-07T19:16:19.087Z,12.47
2019-04-07T19:18:47.369Z,14.10
2019-04-07T19:21:31.506Z,13.80
2019-04-07T19:24:10.665Z,13.60
2019-04-07T19:27:11.992Z,15.10
2019-04-07T19:29:39.022Z,11.40
2019-04-07T19:32:17.955Z,10.90
2019-04-07T19:34:49.327Z,13.57
2019-04-07T19:37:22.895Z,14.37
2019-04-07T19:39:56.475Z,9.77
2019-04-07T19:42:27.384Z,11.23
2019-04-07T19:45:13.441Z,11.30
2019-04-07T19:48:04.006Z,11.97
2019-04-07T19:50:39.145Z,12.30
2019-04-07T19:53:16.095Z,10.77
2019-04-07T19:56:03.089Z,12.10
2019-04-07T19:58:47.027Z,13.23
2019-04-07T20:01:34.226Z,14.33
2019-04-07T20:04:11.051Z,9.50
2019-04-07T20:06:46.868Z,10.87
2019-04-07T20:09:19.358Z,12.90
2019-04-07T20:11:51.560Z,14.40
2019-04-07T20:14:46.595Z,13.53
2019-04-07T20:17:19.730Z,15.53
2019-04-07T20:19:47.880Z,14.83
2019-04-07T20:22:33.898Z,12.53
2019-04-07T20:25:20.004Z,11.47
2019-04-07T20:27:59.466Z,9.63
2019-04-07T20:30:36.397Z,12.70
2019-04-07T20:33:16.827Z,12.63
2019-04-07T20:36:03.742Z,11.53
2019-04-07T20:38:51.173Z,12.27
2019-04-07T20:41:31.546Z,13.97
2019-04-07T20:44:03.893Z,11.13
2019-04-07T20:46:36.094Z,13.43
2019-04-07T20:49:08.815Z,12.83
2019-04-07T20:51:41.041Z,14.33
2019-04-07T20:54:12.279Z,13.57
2019-04-07T20:56:56.181Z,13.70
2019-04-07T20:59:29.007Z,13.60
2019-04-07T21:02:09.445Z,11.57
2019-04-07T21:04:53.766Z,12.70
2019-04-07T21:07:36.722Z,8.68
2019-04-07T21:10:10.926Z,12.80
2019-04-07T21:12:54.808Z,12.20
2019-04-07T21:15:28.229Z,11.18
2019-04-07T21:17:58.286Z,14.33
2019-04-07T21:20:41.992Z,13.47
2019-04-07T21:23:28.055Z,13.10
2019-04-07T21:26:05.760Z,13.88
2019-04-07T21:28:42.819Z,14.33
2019-04-07T21:31:18.643Z,13.18
2019-04-07T21:34:02.412Z,14.85
2019-04-07T21:36:32.214Z,13.87
2019-04-07T21:39:15.093Z,12.37
2019-04-07T21:41:58.378Z,13.93
2019-04-07T21:44:35.884Z,14.23
2019-04-07T21:47:16.152Z,11.10
2019-04-07T21:49:55.891Z,15.48
2019-04-07T21:52:27.074Z,14.07
2019-04-07T21:55:14.885Z,13.08
2019-04-07T21:58:03.961Z,16.17
2019-04-07T22:00:51.084Z,14.28
2019-04-07T22:03:38.276Z,13.68
2019-04-07T22:06:16.575Z,17.98
2019-04-07T22:09:02.491Z,14.20
2019-04-07T22:11:32.601Z,14.90
2019-04-07T22:14:04.113Z,15.32
2019-04-07T22:16:34.238Z,13.40
2019-04-07T22:19:04.224Z,13.75
2019-04-07T22:21:34.153Z,16.82
2019-04-07T22:24:04.817Z,13.18
2019-04-07T22:26:34.968Z,13.45
2019-04-07T22:29:05.569Z,12.82
2019-04-07T22:31:36.791Z,15.50
2019-04-07T22:34:06.910Z,16.27
2019-04-07T22:36:36.451Z,19.52
2019-04-07T22:39:07.785Z,19.15
2019-04-07T22:41:41.231Z,16.25
2019-04-07T22:44:09.217Z,26.45
2019-04-07T22:46:39.599Z,14.28
2019-04-07T22:49:09.316Z,14.85
2019-04-07T22:51:43.007Z,15.90
2019-04-07T22:54:10.072Z,15.85
2019-04-07T22:56:39.936Z,18.90
2019-04-07T22:59:11.601Z,17.32
2019-04-07T23:01:41.641Z,16.50
2019-04-07T23:04:11.949Z,16.97
2019-04-07T23:06:42.479Z,16.10
2019-04-07T23:09:12.068Z,16.25
2019-04-07T23:11:41.571Z,20.82
2019-04-07T23:14:11.537Z,17.07
2019-04-07T23:16:41.085Z,16.05
2019-04-07T23:19:10.951Z,15.50
2019-04-07T23:21:40.559Z,17.32
2019-04-07T23:24:10.860Z,16.00
2019-04-07T23:26:40.519Z,18.90
2019-04-07T23:29:10.105Z,18.07
2019-04-07T23:31:40.472Z,14.78
2019-04-07T23:34:10.559Z,17.37
2019-04-07T23:36:40.161Z,15.43
2019-04-07T23:39:10.012Z,18.60
2019-04-07T23:41:39.754Z,19.48
2019-04-07T23:44:09.471Z,20.20
2019-04-07T23:46:39.348Z,16.73
2019-04-07T23:49:09.900Z,17.67
2019-04-07T23:51:39.492Z,16.95
2019-04-07T23:54:14.263Z,19.87
2019-04-07T23:56:45.810Z,16.80
2019-04-07T23:59:15.379Z,19.75
